Time;durP1;ratioP1;P1;durP2;ratioP2;P2;SDS_P1;SDS_P2;PMS_P1;PMS_P2;Temp;Humidity;BMP_temperature;BMP_pressure;BME280_temperature;BME280_humidity;BME280_pressure;Samples;Min_cycle;Max_cycle;Signal;HPM_P1;HPM_P2
2022/03/01 00:00:23;;;;;;;17.02;6.65;;;1.50;74.70;;;;;;5006056;28;20029;-74
2022/03/01 00:02:48;;;;;;;14.07;7.55;;;1.50;75.20;;;;;;5006718;28;20478;-74
2022/03/01 00:05:14;;;;;;;15.32;6.60;;;1.40;75.30;;;;;;5009075;28;20091;-74
2022/03/01 00:07:40;;;;;;;13.10;6.25;;;1.50;75.50;;;;;;5007618;28;20026;-74
2022/03/01 00:10:06;;;;;;;14.20;6.20;;;1.50;75.30;;;;;;5005245;28;20030;-74
2022/03/01 00:12:32;;;;;;;15.55;6.78;;;1.50;75.60;;;;;;4999033;28;20040;-74
2022/03/01 00:14:57;;;;;;;15.93;6.97;;;1.50;76.00;;;;;;5005263;28;20022;-74
2022/03/01 00:17:23;;;;;;;13.23;6.22;;;1.50;76.10;;;;;;5008917;28;20053;-74
2022/03/01 00:19:49;;;;;;;14.68;6.43;;;1.40;76.40;;;;;;5003205;28;20030;-74
2022/03/01 00:22:14;;;;;;;12.18;5.55;;;1.40;76.30;;;;;;5007683;28;20458;-74
2022/03/01 00:24:40;;;;;;;14.27;6.38;;;1.40;76.60;;;;;;5000005;28;20451;-74
2022/03/01 00:27:06;;;;;;;16.08;6.13;;;1.30;76.70;;;;;;5008663;28;20037;-74
2022/03/01 00:29:32;;;;;;;14.85;6.38;;;1.30;76.80;;;;;;5009024;28;20026;-74
2022/03/01 00:31:57;;;;;;;16.95;7.07;;;1.40;77.00;;;;;;5007193;28;20049;-74
2022/03/01 00:34:23;;;;;;;17.80;6.95;;;1.30;77.40;;;;;;5002980;28;20371;-74
2022/03/01 00:36:49;;;;;;;14.93;5.85;;;1.30;77.90;;;;;;5010112;28;20025;-74
2022/03/01 00:39:14;;;;;;;15.48;5.97;;;1.20;77.70;;;;;;5005228;28;20036;-74
2022/03/01 00:41:40;;;;;;;14.27;6.38;;;1.10;78.20;;;;;;5003224;28;20049;-74
2022/03/01 00:44:06;;;;;;;16.85;6.88;;;1.00;79.00;;;;;;5007724;28;20537;-74
2022/03/01 00:46:32;;;;;;;17.00;7.45;;;1.00;79.90;;;;;;5000841;28;20065;-74
2022/03/01 00:48:59;;;;;;;13.20;6.15;;;0.90;80.40;;;;;;5001958;28;20047;-74
2022/03/01 00:51:27;;;;;;;14.10;6.85;;;0.80;81.90;;;;;;5006901;28;20092;-74
2022/03/01 00:53:53;;;;;;;14.55;6.28;;;0.70;81.70;;;;;;5007129;28;20033;-74
2022/03/01 00:56:19;;;;;;;16.23;7.43;;;0.70;82.40;;;;;;5006782;28;20036;-73
2022/03/01 00:58:44;;;;;;;15.82;6.85;;;0.60;82.80;;;;;;5006005;28;20018;-73
2022/03/01 01:01:10;;;;;;;15.48;7.28;;;0.50;83.20;;;;;;5005064;28;20535;-75
2022/03/01 01:03:36;;;;;;;15.32;6.60;;;0.50;84.10;;;;;;5004026;28;20076;-74
2022/03/01 01:06:02;;;;;;;15.57;6.35;;;0.50;84.70;;;;;;4998897;28;20577;-74
2022/03/01 01:08:28;;;;;;;21.85;7.47;;;0.40;85.30;;;;;;5007372;28;20066;-74
2022/03/01 01:10:54;;;;;;;14.35;6.63;;;0.40;85.60;;;;;;5006954;28;20060;-74
2022/03/01 01:13:20;;;;;;;16.90;6.60;;;0.40;85.60;;;;;;5003085;28;20030;-74
2022/03/01 01:15:46;;;;;;;14.50;6.38;;;0.30;85.90;;;;;;5005841;28;20850;-74
2022/03/01 01:18:12;;;;;;;16.08;7.22;;;0.20;86.80;;;;;;5004821;28;20017;-74
2022/03/01 01:20:38;;;;;;;15.23;6.78;;;0.20;86.90;;;;;;4999107;28;20022;-74
2022/03/01 01:23:04;;;;;;;11.48;6.28;;;0.20;87.80;;;;;;5003810;28;20034;-74
2022/03/01 01:25:30;;;;;;;11.75;6.07;;;0.10;89.40;;;;;;5004629;28;20565;-73
2022/03/01 01:27:57;;;;;;;14.32;6.60;;;0.10;89.20;;;;;;4999123;28;20108;-74
2022/03/01 01:30:26;;;;;;;14.02;7.05;;;0.00;90.00;;;;;;5009171;28;20452;-74
2022/03/01 01:32:53;;;;;;;14.07;7.25;;;0.00;90.40;;;;;;5005982;28;20033;-74
2022/03/01 01:35:21;;;;;;;14.18;6.57;;;0.00;90.50;;;;;;5002856;28;20072;-74
2022/03/01 01:37:48;;;;;;;15.15;6.95;;;-0.10;90.80;;;;;;5003779;28;20029;-74
2022/03/01 01:40:16;;;;;;;16.38;6.55;;;-0.10;91.30;;;;;;5003348;28;20168;-74
2022/03/01 01:42:42;;;;;;;17.52;6.38;;;-0.20;91.10;;;;;;5004921;28;20034;-74
2022/03/01 01:45:08;;;;;;;15.13;7.10;;;-0.20;91.40;;;;;;5003773;28;20046;-73
2022/03/01 01:47:34;;;;;;;14.10;6.47;;;-0.20;91.50;;;;;;5004314;28;20022;-74
2022/03/01 01:50:00;;;;;;;14.80;6.75;;;-0.20;91.80;;;;;;5001884;28;20415;-73
2022/03/01 01:52:26;;;;;;;16.65;6.68;;;-0.20;91.80;;;;;;5006685;28;20059;-74
2022/03/01 01:54:55;;;;;;;14.07;6.50;;;-0.20;92.20;;;;;;5008155;28;20022;-74
2022/03/01 01:57:23;;;;;;;15.80;7.00;;;-0.20;92.50;;;;;;5001377;28;20018;-74
2022/03/01 01:59:50;;;;;;;13.93;5.72;;;-0.20;92.60;;;;;;5005991;28;20036;-74
2022/03/01 02:02:19;;;;;;;17.05;7.32;;;-0.30;92.90;;;;;;5003086;28;20026;-73
2022/03/01 02:04:45;;;;;;;15.02;6.97;;;-0.20;93.50;;;;;;5008665;28;20434;-74
2022/03/01 02:07:12;;;;;;;19.23;7.47;;;-0.20;94.00;;;;;;5007931;28;20053;-73
2022/03/01 02:09:37;;;;;;;17.52;6.70;;;-0.20;94.00;;;;;;5002298;28;20060;-74
2022/03/01 02:12:04;;;;;;;14.40;7.22;;;-0.20;93.80;;;;;;5007340;28;20088;-74
2022/03/01 02:14:31;;;;;;;17.17;7.43;;;-0.20;94.20;;;;;;5004428;28;20103;-74
2022/03/01 02:16:59;;;;;;;17.73;7.20;;;-0.20;93.70;;;;;;5025390;28;20634;-73
2022/03/01 02:19:25;;;;;;;16.90;7.35;;;-0.20;93.30;;;;;;5004630;28;20439;-74
2022/03/01 02:21:55;;;;;;;21.10;7.70;;;-0.20;93.40;;;;;;5005563;28;20471;-74
2022/03/01 02:24:21;;;;;;;18.52;7.22;;;-0.20;94.00;;;;;;5008539;28;20547;-74
2022/03/01 02:26:47;;;;;;;17.02;7.00;;;-0.30;94.90;;;;;;5010935;28;20167;-74
2022/03/01 02:29:13;;;;;;;16.95;6.93;;;-0.30;95.30;;;;;;5011298;28;20038;-76
2022/03/01 02:31:39;;;;;;;16.33;7.20;;;-0.30;95.20;;;;;;5011696;28;20029;-75
2022/03/01 02:34:05;;;;;;;16.60;7.68;;;-0.40;95.40;;;;;;5010222;28;20041;-74
2022/03/01 02:36:31;;;;;;;20.08;8.30;;;-0.40;95.80;;;;;;5011961;28;20084;-75
2022/03/01 02:38:58;;;;;;;17.80;7.72;;;-0.40;95.90;;;;;;5009166;28;20026;-75
2022/03/01 02:41:25;;;;;;;20.85;8.75;;;-0.50;96.10;;;;;;5008680;28;20026;-75
2022/03/01 02:43:51;;;;;;;19.35;8.73;;;-0.40;96.50;;;;;;5004816;28;20097;-75
2022/03/01 02:46:17;;;;;;;17.60;7.97;;;-0.50;96.40;;;;;;5008296;28;20439;-75
2022/03/01 02:48:42;;;;;;;19.90;8.45;;;-0.50;96.70;;;;;;5009668;28;20116;-74
2022/03/01 02:51:08;;;;;;;15.82;7.50;;;-0.50;96.80;;;;;;5007370;28;20038;-74
2022/03/01 02:53:36;;;;;;;22.13;9.10;;;-0.50;97.10;;;;;;5011083;28;20164;-75
2022/03/01 02:56:04;;;;;;;22.33;8.60;;;-0.60;97.10;;;;;;5011471;28;20022;-75
2022/03/01 02:58:30;;;;;;;19.90;8.35;;;-0.60;97.50;;;;;;5000425;28;20030;-75
2022/03/01 03:00:56;;;;;;;16.83;7.70;;;-0.60;97.60;;;;;;5005021;28;20064;-74
2022/03/01 03:03:21;;;;;;;15.48;7.50;;;-0.60;97.50;;;;;;5010808;28;20033;-75
2022/03/01 03:05:47;;;;;;;22.55;8.07;;;-0.70;97.60;;;;;;5009936;28;20117;-75
2022/03/01 03:08:13;;;;;;;17.23;8.43;;;-0.70;98.80;;;;;;5011850;28;20029;-74
2022/03/01 03:10:39;;;;;;;19.80;7.95;;;-0.70;98.80;;;;;;5015093;28;20034;-75
2022/03/01 03:13:05;;;;;;;16.95;7.85;;;-0.80;99.00;;;;;;5012255;28;20053;-75
2022/03/01 03:15:31;;;;;;;21.20;9.23;;;-0.80;99.40;;;;;;5020609;28;20026;-75
2022/03/01 03:17:57;;;;;;;18.88;7.78;;;-0.80;99.40;;;;;;5015365;28;20072;-75
2022/03/01 03:20:22;;;;;;;19.10;7.47;;;-0.90;99.40;;;;;;5007950;28;20034;-75
2022/03/01 03:22:48;;;;;;;16.30;7.75;;;-0.90;99.50;;;;;;5010943;28;20056;-76
2022/03/01 03:25:15;;;;;;;17.98;8.18;;;-0.90;99.90;;;;;;5009102;28;20037;-75
2022/03/01 03:27:41;;;;;;;19.80;8.15;;;-0.90;99.90;;;;;;5012228;28;20033;-75
2022/03/01 03:30:07;;;;;;;16.88;7.72;;;-1.00;99.90;;;;;;5008399;28;20026;-75
2022/03/01 03:32:33;;;;;;;20.42;7.95;;;-1.10;99.90;;;;;;5011505;28;20072;-75
2022/03/01 03:35:00;;;;;;;16.15;8.05;;;-1.10;99.90;;;;;;5015456;28;20030;-75
2022/03/01 03:37:25;;;;;;;17.52;8.77;;;-1.20;99.90;;;;;;5015391;28;20040;-75
2022/03/01 03:39:51;;;;;;;18.95;7.55;;;-1.20;99.90;;;;;;5013416;28;20026;-76
2022/03/01 03:42:16;;;;;;;17.00;8.20;;;-1.20;99.90;;;;;;5013329;28;20569;-76
2022/03/01 03:44:42;;;;;;;22.05;8.45;;;-1.20;99.90;;;;;;5011634;28;20030;-74
2022/03/01 03:47:09;;;;;;;17.95;8.38;;;-1.20;99.90;;;;;;5011644;28;20075;-74
2022/03/01 03:49:35;;;;;;;17.58;7.75;;;-1.20;99.90;;;;;;5011313;28;20144;-75
2022/03/01 03:52:02;;;;;;;22.10;8.45;;;-1.20;99.90;;;;;;5013727;28;20030;-74
2022/03/01 03:54:28;;;;;;;19.60;9.02;;;-1.20;99.90;;;;;;5028719;28;20064;-75
2022/03/01 03:56:54;;;;;;;18.52;8.43;;;-1.20;99.90;;;;;;5013961;28;20022;-75
2022/03/01 03:59:20;;;;;;;17.73;8.32;;;-1.20;99.90;;;;;;5013886;28;20037;-76
2022/03/01 04:01:45;;;;;;;21.15;8.25;;;-1.30;99.90;;;;;;5009621;28;20030;-75
2022/03/01 04:04:11;;;;;;;20.98;8.23;;;-1.40;99.90;;;;;;5005442;28;20117;-73
2022/03/01 04:06:37;;;;;;;18.98;8.35;;;-1.40;99.90;;;;;;5010527;28;20056;-75
2022/03/01 04:09:03;;;;;;;18.35;7.18;;;-1.40;99.90;;;;;;5002513;28;20030;-74
2022/03/01 04:11:29;;;;;;;20.10;8.73;;;-1.40;99.90;;;;;;5005240;28;20030;-73
2022/03/01 04:13:55;;;;;;;22.88;8.57;;;-1.50;99.90;;;;;;5009666;28;20483;-72
2022/03/01 04:16:21;;;;;;;19.40;8.77;;;-1.40;99.90;;;;;;5005719;28;20029;-74
2022/03/01 04:18:47;;;;;;;18.52;7.88;;;-1.40;99.90;;;;;;5007783;28;20025;-75
2022/03/01 04:21:14;;;;;;;18.42;8.48;;;-1.40;99.90;;;;;;5024828;28;20419;-75
2022/03/01 04:23:39;;;;;;;18.90;7.85;;;-1.40;99.90;;;;;;5008767;28;20035;-75
2022/03/01 04:26:05;;;;;;;15.88;7.70;;;-1.40;99.90;;;;;;5013559;28;20389;-76
2022/03/01 04:28:31;;;;;;;17.38;8.52;;;-1.40;99.90;;;;;;5010665;28;20033;-73
2022/03/01 04:30:57;;;;;;;16.85;8.07;;;-1.50;99.90;;;;;;5011260;28;20033;-77
2022/03/01 04:33:23;;;;;;;18.65;8.85;;;-1.50;99.90;;;;;;5002956;28;20491;-75
2022/03/01 04:35:49;;;;;;;22.17;9.05;;;-1.50;99.90;;;;;;5003190;28;20034;-75
2022/03/01 04:38:15;;;;;;;17.70;7.35;;;-1.60;99.90;;;;;;5015110;28;20034;-75
2022/03/01 04:40:40;;;;;;;20.90;8.95;;;-1.60;99.90;;;;;;5010864;28;20026;-75
2022/03/01 04:43:06;;;;;;;19.13;9.20;;;-1.70;99.90;;;;;;5012208;28;20029;-76
2022/03/01 04:45:32;;;;;;;24.27;9.40;;;-1.70;99.90;;;;;;5011105;28;20469;-74
2022/03/01 04:47:58;;;;;;;22.60;8.70;;;-1.90;99.90;;;;;;5005951;28;20030;-75
2022/03/01 04:50:25;;;;;;;20.02;8.68;;;-1.90;99.90;;;;;;5008221;28;20037;-76
2022/03/01 04:52:51;;;;;;;19.60;8.50;;;-2.00;99.90;;;;;;5010554;28;20032;-73
2022/03/01 04:55:16;;;;;;;19.45;8.48;;;-2.00;99.90;;;;;;5012691;28;20034;-76
2022/03/01 04:57:43;;;;;;;23.02;9.40;;;-2.10;99.90;;;;;;5013681;28;20029;-75
2022/03/01 05:00:10;;;;;;;18.88;8.68;;;-2.10;99.90;;;;;;5010859;28;20105;-74
2022/03/01 05:02:40;;;;;;;22.20;8.90;;;-2.10;99.90;;;;;;5010752;28;20112;-75
2022/03/01 05:05:10;;;;;;;19.30;8.85;;;-2.20;99.90;;;;;;5008465;28;20026;-75
2022/03/01 05:07:40;;;;;;;18.40;8.85;;;-2.20;99.90;;;;;;5000051;28;20030;-75
2022/03/01 05:10:08;;;;;;;21.83;9.60;;;-2.20;99.90;;;;;;4991122;28;20102;-75
2022/03/01 05:12:41;;;;;;;19.92;9.07;;;-2.20;99.90;;;;;;4969006;28;72754;-74
2022/03/01 05:15:07;;;;;;;19.15;8.90;;;-2.20;99.90;;;;;;4974331;28;20019;-75
2022/03/01 05:17:34;;;;;;;19.83;8.50;;;-2.30;99.90;;;;;;4974714;28;20031;-75
2022/03/01 05:20:01;;;;;;;19.30;8.50;;;-2.30;99.90;;;;;;4973358;28;20030;-76
2022/03/01 05:22:27;;;;;;;22.00;9.50;;;-2.40;99.90;;;;;;4970223;28;20031;-75
2022/03/01 05:24:52;;;;;;;18.27;8.20;;;-2.40;99.90;;;;;;4966150;28;20448;-75
2022/03/01 05:27:18;;;;;;;19.58;8.00;;;-2.40;99.90;;;;;;4972076;28;20427;-74
2022/03/01 05:29:44;;;;;;;21.05;9.30;;;-2.40;99.90;;;;;;4973753;28;20074;-75
2022/03/01 05:32:11;;;;;;;18.98;8.68;;;-2.50;99.90;;;;;;4973732;28;20023;-76
2022/03/01 05:34:37;;;;;;;19.63;9.60;;;-2.50;99.90;;;;;;4972078;28;20034;-75
2022/03/01 05:37:03;;;;;;;22.70;8.93;;;-2.50;99.90;;;;;;4973128;28;20022;-74
2022/03/01 05:39:29;;;;;;;24.60;9.00;;;-2.50;99.90;;;;;;4972002;28;20035;-76
2022/03/01 05:41:55;;;;;;;19.00;9.15;;;-2.50;99.90;;;;;;4979869;28;20357;-74
2022/03/01 05:44:20;;;;;;;18.02;8.77;;;-2.60;99.90;;;;;;4972344;28;20031;-76
2022/03/01 05:46:46;;;;;;;21.55;9.32;;;-2.60;99.90;;;;;;4969709;28;20039;-76
2022/03/01 05:49:12;;;;;;;19.05;9.25;;;-2.60;99.90;;;;;;4974372;28;20030;-77
2022/03/01 05:51:37;;;;;;;20.88;8.75;;;-2.50;99.90;;;;;;4976716;28;20034;-75
2022/03/01 05:54:03;;;;;;;18.40;9.35;;;-2.60;99.90;;;;;;4973611;28;20394;-74
2022/03/01 05:56:30;;;;;;;21.67;9.30;;;-2.60;99.90;;;;;;4970957;28;20110;-75
2022/03/01 05:58:56;;;;;;;26.83;10.57;;;-2.60;99.90;;;;;;4970097;28;20062;-76
2022/03/01 06:01:22;;;;;;;22.60;10.07;;;-2.60;99.90;;;;;;4972313;28;20062;-77
2022/03/01 06:03:48;;;;;;;20.95;10.02;;;-2.60;99.90;;;;;;4972681;28;20039;-76
2022/03/01 06:06:14;;;;;;;22.80;9.43;;;-2.70;99.90;;;;;;4966071;28;20070;-77
2022/03/01 06:08:39;;;;;;;24.63;9.80;;;-2.70;99.90;;;;;;4971314;28;20027;-77
2022/03/01 06:11:05;;;;;;;30.17;10.52;;;-2.60;99.90;;;;;;4974242;28;20080;-77
2022/03/01 06:13:31;;;;;;;26.52;9.95;;;-2.50;99.90;;;;;;4969116;28;20392;-77
2022/03/01 06:16:00;;;;;;;31.40;10.80;;;-2.50;99.90;;;;;;4966939;28;20034;-74
2022/03/01 06:18:26;;;;;;;23.45;10.50;;;-2.40;99.90;;;;;;4971221;28;20514;-74
2022/03/01 06:20:52;;;;;;;26.35;9.88;;;-2.40;99.90;;;;;;4970702;28;20034;-75
2022/03/01 06:23:18;;;;;;;27.83;10.35;;;-2.30;99.90;;;;;;4973565;28;20479;-77
2022/03/01 06:25:44;;;;;;;24.45;10.73;;;-2.30;99.90;;;;;;4969941;28;20039;-77
2022/03/01 06:28:10;;;;;;;21.45;9.35;;;-2.30;99.90;;;;;;4967350;28;20488;-75
2022/03/01 06:30:37;;;;;;;22.35;9.35;;;-2.30;99.90;;;;;;4965897;28;20051;-75
2022/03/01 06:33:04;;;;;;;22.88;10.77;;;-2.30;99.90;;;;;;4970019;28;20023;-75
2022/03/01 06:35:30;;;;;;;27.55;10.77;;;-2.40;99.90;;;;;;4963789;28;20106;-75
2022/03/01 06:37:56;;;;;;;21.50;10.52;;;-2.50;99.90;;;;;;4966005;28;20019;-75
2022/03/01 06:40:23;;;;;;;23.35;10.15;;;-2.50;99.90;;;;;;4971779;28;20037;-77
2022/03/01 06:42:49;;;;;;;18.88;9.35;;;-2.50;99.90;;;;;;4967776;28;20118;-77
2022/03/01 06:45:15;;;;;;;25.05;10.57;;;-2.60;99.90;;;;;;4971052;28;20436;-76
2022/03/01 06:47:41;;;;;;;28.02;10.63;;;-2.60;99.90;;;;;;4965942;28;20027;-77
2022/03/01 06:50:08;;;;;;;23.40;10.65;;;-2.50;99.90;;;;;;4967718;28;20042;-68
2022/03/01 06:52:34;;;;;;;28.70;10.93;;;-2.40;99.90;;;;;;4964774;28;20052;-77
2022/03/01 06:55:02;;;;;;;26.08;10.70;;;-2.30;99.90;;;;;;4976760;28;20045;-77
2022/03/01 06:57:28;;;;;;;29.90;11.90;;;-2.20;99.90;;;;;;4972215;28;20076;-78
2022/03/01 06:59:54;;;;;;;27.30;10.75;;;-2.20;99.90;;;;;;4970878;28;20491;-78
2022/03/01 07:02:21;;;;;;;27.10;11.65;;;-2.10;99.90;;;;;;4973464;28;20023;-76
2022/03/01 07:04:46;;;;;;;22.08;9.75;;;-2.10;99.90;;;;;;4970183;28;20062;-74
2022/03/01 07:07:12;;;;;;;26.35;11.73;;;-2.00;99.90;;;;;;4970739;28;20062;-75
2022/03/01 07:09:38;;;;;;;30.23;11.90;;;-1.90;99.90;;;;;;4967608;28;20041;-77
2022/03/01 07:12:04;;;;;;;29.98;12.13;;;-1.90;99.90;;;;;;4969242;28;20035;-78
2022/03/01 07:14:29;;;;;;;30.42;11.05;;;-1.80;99.90;;;;;;4976327;28;20433;-77
2022/03/01 07:16:55;;;;;;;24.55;10.43;;;-1.70;99.90;;;;;;4975501;28;20035;-78
2022/03/01 07:19:21;;;;;;;23.25;10.73;;;-1.70;99.90;;;;;;4971826;28;20150;-77
2022/03/01 07:21:46;;;;;;;34.05;12.30;;;-1.60;99.90;;;;;;4975100;28;20101;-77
2022/03/01 07:24:12;;;;;;;23.90;10.88;;;-1.60;99.90;;;;;;4970796;28;20090;-78
2022/03/01 07:26:38;;;;;;;25.92;11.35;;;-1.50;99.90;;;;;;4967984;28;20059;-78
2022/03/01 07:29:04;;;;;;;23.65;10.70;;;-1.40;99.90;;;;;;4970984;28;20523;-68
2022/03/01 07:31:29;;;;;;;24.85;10.90;;;-1.30;99.90;;;;;;4966688;28;20049;-68
2022/03/01 07:33:55;;;;;;;23.98;10.73;;;-1.10;99.90;;;;;;4978263;28;20033;-74
2022/03/01 07:36:21;;;;;;;24.67;11.00;;;-0.90;99.90;;;;;;4965873;28;20022;-73
2022/03/01 07:38:47;;;;;;;24.20;10.15;;;-0.90;99.90;;;;;;4968471;28;20023;-74
2022/03/01 07:41:13;;;;;;;23.63;10.07;;;-0.90;99.90;;;;;;4964648;28;20059;-74
2022/03/01 07:43:39;;;;;;;21.88;9.50;;;-0.90;99.90;;;;;;4965313;28;20039;-74
2022/03/01 07:46:07;;;;;;;25.50;10.35;;;-0.80;99.90;;;;;;4960716;28;20484;-73
2022/03/01 07:48:32;;;;;;;22.25;9.82;;;-0.80;99.90;;;;;;4961089;28;20074;-70
2022/03/01 07:50:58;;;;;;;20.45;10.32;;;-0.80;99.90;;;;;;4972769;28;20420;-72
2022/03/01 07:53:24;;;;;;;19.02;8.80;;;-0.80;99.90;;;;;;4972565;28;20031;-72
2022/03/01 07:55:50;;;;;;;25.27;10.20;;;-0.70;99.90;;;;;;4972110;28;20027;-74
2022/03/01 07:58:16;;;;;;;21.92;10.18;;;-0.80;99.90;;;;;;4971033;28;20055;-74
2022/03/01 08:00:41;;;;;;;24.63;10.23;;;-0.70;99.90;;;;;;4967169;28;20026;-73
2022/03/01 08:03:07;;;;;;;21.40;9.60;;;-0.70;99.90;;;;;;4973442;28;20046;-74
2022/03/01 08:05:32;;;;;;;24.98;10.75;;;-0.60;99.90;;;;;;4971319;28;20045;-73
2022/03/01 08:07:58;;;;;;;20.98;10.27;;;-0.60;99.90;;;;;;4967869;28;20037;-74
2022/03/01 08:10:25;;;;;;;21.05;9.38;;;-0.50;99.90;;;;;;4967308;28;20033;-74
2022/03/01 08:12:50;;;;;;;23.73;10.77;;;-0.40;99.90;;;;;;4971086;28;20492;-74
2022/03/01 08:15:16;;;;;;;23.58;10.85;;;-0.40;99.90;;;;;;4967078;28;20106;-74
2022/03/01 08:17:53;;;;;;;24.05;10.20;;;-0.20;99.90;;;;;;4969153;28;20475;-74
2022/03/01 08:20:19;;;;;;;29.92;10.18;;;-0.20;99.90;;;;;;4970272;28;20396;-70
2022/03/01 08:22:45;;;;;;;22.67;10.68;;;-0.20;99.90;;;;;;4970261;28;20074;-73
2022/03/01 08:25:11;;;;;;;22.00;10.57;;;-0.10;99.90;;;;;;4970418;28;20023;-74
2022/03/01 08:27:37;;;;;;;24.92;9.63;;;-0.10;99.90;;;;;;4970985;28;20029;-71
2022/03/01 08:30:04;;;;;;;23.45;9.77;;;0.00;99.90;;;;;;4968156;28;20023;-72
2022/03/01 08:32:30;;;;;;;29.33;9.60;;;0.00;99.90;;;;;;4969791;28;20130;-72
2022/03/01 08:34:56;;;;;;;22.42;9.68;;;0.00;99.90;;;;;;4975245;28;20243;-73
2022/03/01 08:37:21;;;;;;;27.85;9.25;;;0.10;99.90;;;;;;4970133;28;20058;-73
2022/03/01 08:39:47;;;;;;;22.13;10.00;;;0.10;99.90;;;;;;4967278;28;20023;-71
2022/03/01 08:42:13;;;;;;;20.00;8.23;;;0.20;99.70;;;;;;4972467;28;20392;-72
2022/03/01 08:44:39;;;;;;;18.45;8.25;;;0.30;99.10;;;;;;4968043;28;20030;-74
2022/03/01 08:47:04;;;;;;;18.98;8.80;;;0.30;98.50;;;;;;4970594;28;20117;-72
2022/03/01 08:49:30;;;;;;;19.58;8.70;;;0.50;98.30;;;;;;4971480;28;20085;-73
2022/03/01 08:51:56;;;;;;;17.70;8.68;;;0.60;97.80;;;;;;4964330;28;20019;-75
2022/03/01 08:54:23;;;;;;;22.67;9.25;;;0.70;97.40;;;;;;4973144;28;20031;-72
2022/03/01 08:56:49;;;;;;;23.10;10.15;;;0.80;98.00;;;;;;4972728;28;20050;-73
2022/03/01 08:59:14;;;;;;;20.02;9.65;;;0.90;97.80;;;;;;4968357;28;20428;-74
2022/03/01 09:01:40;;;;;;;21.02;9.20;;;1.00;97.90;;;;;;4969383;28;20045;-72
2022/03/01 09:04:06;;;;;;;22.17;9.98;;;1.10;98.40;;;;;;4964816;28;20046;-72
2022/03/01 09:06:32;;;;;;;19.48;9.32;;;1.20;98.40;;;;;;4964226;28;20487;-72
2022/03/01 09:08:57;;;;;;;20.08;9.18;;;1.20;98.00;;;;;;4973178;28;20018;-72
2022/03/01 09:11:23;;;;;;;24.63;11.15;;;1.30;98.20;;;;;;4970030;28;20023;-72
2022/03/01 09:13:49;;;;;;;19.90;9.23;;;1.40;98.20;;;;;;4970574;28;20123;-72
2022/03/01 09:16:15;;;;;;;19.25;9.38;;;1.50;97.70;;;;;;4967072;28;20024;-71
2022/03/01 09:18:41;;;;;;;20.98;9.30;;;1.60;96.60;;;;;;4966916;28;20027;-71
2022/03/01 09:21:07;;;;;;;17.35;9.40;;;1.70;96.10;;;;;;4963441;28;20049;-72
2022/03/01 09:23:33;;;;;;;19.00;8.82;;;1.80;95.60;;;;;;4968183;28;20102;-72
2022/03/01 09:25:59;;;;;;;18.83;8.70;;;1.90;94.90;;;;;;4971565;28;20505;-73
2022/03/01 09:28:25;;;;;;;21.27;9.35;;;2.00;94.80;;;;;;4966271;28;20031;-72
2022/03/01 09:30:51;;;;;;;17.27;8.20;;;2.10;93.60;;;;;;4959252;28;20037;-73
2022/03/01 09:33:16;;;;;;;20.77;7.22;;;2.30;91.80;;;;;;4963313;28;20165;-72
2022/03/01 09:35:42;;;;;;;10.10;5.15;;;2.40;85.00;;;;;;4970808;28;20476;-71
2022/03/01 09:38:09;;;;;;;14.45;6.00;;;2.60;80.80;;;;;;4967064;28;20023;-73
2022/03/01 09:40:35;;;;;;;13.55;6.57;;;2.80;78.40;;;;;;4963528;28;20034;-73
2022/03/01 09:43:01;;;;;;;13.95;6.63;;;3.00;76.90;;;;;;4959480;28;20030;-72
2022/03/01 09:45:27;;;;;;;13.20;7.20;;;3.10;74.30;;;;;;4966200;28;20168;-73
2022/03/01 09:47:53;;;;;;;13.02;5.65;;;3.20;72.50;;;;;;4968199;28;20039;-73
2022/03/01 09:50:27;;;;;;;12.07;5.85;;;3.30;72.00;;;;;;4969679;28;20038;-72
2022/03/01 09:52:58;;;;;;;10.13;5.28;;;3.40;69.40;;;;;;4968259;28;20468;-74
2022/03/01 09:55:24;;;;;;;15.68;6.22;;;3.50;69.60;;;;;;4968807;28;20034;-73
2022/03/01 09:57:50;;;;;;;9.63;5.38;;;3.60;69.20;;;;;;4968271;28;20027;-70
2022/03/01 10:00:17;;;;;;;13.45;6.00;;;3.60;68.90;;;;;;4958728;28;20023;-70
2022/03/01 10:02:44;;;;;;;13.52;6.47;;;3.70;66.70;;;;;;4954619;28;20035;-70
2022/03/01 10:05:11;;;;;;;13.30;5.90;;;3.70;66.10;;;;;;4972015;28;20019;-71
2022/03/01 10:07:42;;;;;;;13.73;6.75;;;3.90;65.80;;;;;;4972736;28;20514;-72
2022/03/01 10:10:16;;;;;;;13.75;6.00;;;4.00;63.70;;;;;;4970703;28;20030;-71
2022/03/01 10:12:44;;;;;;;11.50;6.22;;;3.90;63.20;;;;;;4969066;28;20032;-73
2022/03/01 10:15:10;;;;;;;13.35;6.07;;;3.90;63.00;;;;;;4966833;28;20031;-72
2022/03/01 10:17:43;;;;;;;12.57;6.20;;;3.90;63.10;;;;;;4968142;28;20031;-73
2022/03/01 10:20:14;;;;;;;11.30;5.45;;;3.90;63.10;;;;;;4969620;28;20495;-73
2022/03/01 10:22:51;;;;;;;12.80;5.43;;;3.90;60.80;;;;;;4968383;28;20026;-72
2022/03/01 10:25:19;;;;;;;13.10;5.90;;;3.90;61.60;;;;;;4964453;28;20547;-72
2022/03/01 10:27:47;;;;;;;11.80;6.28;;;4.00;61.00;;;;;;4970938;28;20030;-73
2022/03/01 10:30:22;;;;;;;10.75;5.88;;;3.90;61.80;;;;;;4961704;28;20346;-73
2022/03/01 10:32:47;;;;;;;10.05;5.50;;;4.00;61.50;;;;;;4967757;28;20499;-74
2022/03/01 10:35:13;;;;;;;10.55;5.63;;;4.10;61.40;;;;;;4969888;28;20030;-72
2022/03/01 10:37:40;;;;;;;14.05;5.75;;;4.10;60.50;;;;;;4967923;28;20027;-69
2022/03/01 10:40:14;;;;;;;13.05;6.10;;;4.20;62.20;;;;;;4969720;28;20472;-69
2022/03/01 10:42:42;;;;;;;12.13;5.60;;;4.60;63.30;;;;;;4975277;28;20049;-74
2022/03/01 10:45:11;;;;;;;10.43;5.32;;;4.60;59.90;;;;;;4965395;28;20047;-73
2022/03/01 10:47:37;;;;;;;11.93;6.10;;;4.60;58.80;;;;;;4960811;28;20041;-72
2022/03/01 10:50:09;;;;;;;11.70;5.85;;;4.60;59.20;;;;;;4964800;28;20113;-73
2022/03/01 10:52:39;;;;;;;8.20;4.75;;;4.60;57.40;;;;;;4966912;28;20421;-74
2022/03/01 10:55:06;;;;;;;11.13;5.70;;;4.60;55.50;;;;;;4968022;28;20400;-74
2022/03/01 10:57:32;;;;;;;11.10;5.03;;;4.70;57.40;;;;;;4969418;28;20365;-75
2022/03/01 10:59:58;;;;;;;8.90;4.43;;;4.80;57.50;;;;;;4973475;28;20097;-75
2022/03/01 11:02:24;;;;;;;9.05;4.68;;;4.80;53.90;;;;;;4980091;28;20098;-73
2022/03/01 11:04:50;;;;;;;7.70;4.82;;;4.90;52.00;;;;;;4971745;28;20097;-74
2022/03/01 11:07:18;;;;;;;9.88;5.00;;;4.90;52.40;;;;;;4972260;28;20022;-74
2022/03/01 11:09:44;;;;;;;10.75;4.88;;;4.90;52.50;;;;;;4970915;28;20027;-73
2022/03/01 11:12:11;;;;;;;11.95;4.75;;;4.90;52.90;;;;;;4966280;28;20038;-74
2022/03/01 11:14:42;;;;;;;9.75;4.72;;;4.90;52.20;;;;;;4971363;28;20019;-72
2022/03/01 11:17:08;;;;;;;7.88;4.25;;;4.90;52.10;;;;;;4967386;28;20058;-72
2022/03/01 11:19:53;;;;;;;9.65;4.72;;;4.90;52.80;;;;;;4969475;28;20098;-73
2022/03/01 11:22:24;;;;;;;12.55;4.55;;;4.90;52.70;;;;;;4971218;28;20432;-72
2022/03/01 11:24:49;;;;;;;10.70;5.00;;;5.00;52.70;;;;;;4966672;28;20172;-71
2022/03/01 11:27:20;;;;;;;10.50;5.53;;;5.10;51.90;;;;;;4970446;28;20066;-75
2022/03/01 11:29:46;;;;;;;17.63;5.70;;;5.00;52.80;;;;;;4974271;28;20042;-70
2022/03/01 11:32:17;;;;;;;14.10;6.15;;;5.10;53.20;;;;;;4976753;28;20499;-73
2022/03/01 11:34:44;;;;;;;11.70;6.15;;;5.20;54.50;;;;;;4969364;28;20031;-74
2022/03/01 11:37:22;;;;;;;12.05;5.40;;;5.10;54.00;;;;;;4969474;28;20031;-73
2022/03/01 11:39:56;;;;;;;12.50;5.90;;;5.20;53.70;;;;;;4964909;28;20034;-71
2022/03/01 11:42:22;;;;;;;11.48;5.57;;;5.20;52.80;;;;;;4965922;28;20042;-72
2022/03/01 11:44:50;;;;;;;9.63;5.32;;;5.20;52.20;;;;;;4964191;28;20038;-72
2022/03/01 11:47:29;;;;;;;12.07;5.28;;;5.20;51.80;;;;;;4971006;28;20019;-72
2022/03/01 11:49:55;;;;;;;11.40;5.28;;;5.20;52.00;;;;;;4973360;28;20035;-72
2022/03/01 11:52:26;;;;;;;11.05;5.38;;;5.20;52.40;;;;;;4970144;28;20034;-71
2022/03/01 11:54:55;;;;;;;11.52;5.53;;;5.30;53.10;;;;;;4971291;28;20546;-72
2022/03/01 11:57:27;;;;;;;11.07;5.97;;;5.30;54.00;;;;;;4970608;28;20045;-72
2022/03/01 11:59:56;;;;;;;11.27;6.00;;;5.30;54.90;;;;;;4968949;28;20023;-72
2022/03/01 12:02:24;;;;;;;10.70;6.00;;;5.30;54.50;;;;;;4974583;28;20026;-72
2022/03/01 12:04:52;;;;;;;15.32;6.65;;;5.40;56.30;;;;;;4972058;28;20026;-74
2022/03/01 12:07:21;;;;;;;12.02;6.65;;;5.50;57.40;;;;;;4969369;28;20538;-72
2022/03/01 12:10:05;;;;;;;14.20;6.95;;;5.50;57.80;;;;;;4970160;28;20038;-73
2022/03/01 12:12:44;;;;;;;12.15;6.15;;;5.60;57.70;;;;;;4966041;28;20035;-72
2022/03/01 12:15:12;;;;;;;15.55;7.05;;;5.70;57.00;;;;;;4966520;28;20038;-72
2022/03/01 12:17:46;;;;;;;12.38;7.22;;;5.80;56.50;;;;;;4968416;28;20026;-72
2022/03/01 12:20:15;;;;;;;13.52;7.18;;;6.00;57.00;;;;;;4971380;28;20035;-71
2022/03/01 12:22:54;;;;;;;12.05;6.80;;;6.10;56.40;;;;;;4968670;28;20042;-71
2022/03/01 12:25:20;;;;;;;12.80;6.32;;;6.10;55.40;;;;;;4963770;28;20047;-71
2022/03/01 12:27:48;;;;;;;14.23;6.97;;;6.10;55.30;;;;;;4973846;28;20023;-71
2022/03/01 12:30:14;;;;;;;12.48;6.28;;;6.20;55.30;;;;;;4972011;28;20428;-73
2022/03/01 12:32:39;;;;;;;14.77;6.30;;;6.20;53.80;;;;;;4966302;28;20062;-72
2022/03/01 12:35:08;;;;;;;11.90;6.95;;;6.20;54.40;;;;;;4964239;28;21310;-73
2022/03/01 12:37:34;;;;;;;10.07;5.72;;;6.20;54.60;;;;;;4964284;28;20393;-75